createdAt,value
2019-05-12T00:00:34.288Z,936.5
2019-05-12T00:01:35.398Z,936.4
2019-05-12T00:02:39.434Z,936.5
2019-05-12T00:03:37.915Z,936.4
2019-05-12T00:04:39.311Z,936.5
2019-05-12T00:05:40.436Z,936.5
2019-05-12T00:06:41.566Z,936.3
2019-05-12T00:07:43.701Z,936.4
2019-05-12T00:08:44.090Z,936.4
2019-05-12T00:09:47.417Z,936.4
2019-05-12T00:10:47.814Z,936.4
2019-05-12T00:11:48.393Z,936.4
2019-05-12T00:12:48.436Z,936.4
2019-05-12T00:13:48.925Z,936.5
2019-05-12T00:14:50.315Z,936.5
2019-05-12T00:15:53.028Z,936.3
2019-05-12T00:16:54.512Z,936.4
2019-05-12T00:17:54.094Z,936
2019-05-12T00:18:54.496Z,936.3
2019-05-12T00:19:58.270Z,936.4
2019-05-12T00:20:57.893Z,936.5
2019-05-12T00:21:58.682Z,936.4
2019-05-12T00:22:58.206Z,936.3
2019-05-12T00:23:59.334Z,936.5
2019-05-12T00:25:00.739Z,936.5
2019-05-12T00:26:04.201Z,936.5
2019-05-12T00:27:03.604Z,936.5
2019-05-12T00:28:04.993Z,936.5
2019-05-12T00:29:07.667Z,936.5
2019-05-12T00:30:09.873Z,936.4
2019-05-12T00:31:08.351Z,936.5
2019-05-12T00:32:08.808Z,936.5
2019-05-12T00:33:09.928Z,936.5
2019-05-12T00:34:11.088Z,936.5
2019-05-12T00:35:13.410Z,936.5
2019-05-12T00:36:13.527Z,936.5
2019-05-12T00:37:14.924Z,936.5
2019-05-12T00:38:17.630Z,936.5
2019-05-12T00:39:18.794Z,936.5
2019-05-12T00:40:19.101Z,936.4
2019-05-12T00:41:18.596Z,936.6
2019-05-12T00:42:19.722Z,936.6
2019-05-12T00:43:21.126Z,936.7
2019-05-12T00:44:23.813Z,936.7
2019-05-12T00:45:22.923Z,936.6
2019-05-12T00:46:24.052Z,936.7
2019-05-12T00:47:27.922Z,936.5
2019-05-12T00:48:28.229Z,936.5
2019-05-12T00:49:28.900Z,936.8
2019-05-12T00:50:29.021Z,936.7
2019-05-12T00:51:29.052Z,936.7
2019-05-12T00:52:29.430Z,936.6
2019-05-12T00:53:39.550Z,936.6
2019-05-12T00:54:34.108Z,936.6
2019-05-12T00:55:34.382Z,936.8
2019-05-12T00:56:33.890Z,936.7
2019-05-12T00:57:35.284Z,936.8
2019-05-12T00:58:38.212Z,936.7
2019-05-12T00:59:38.234Z,936.6
2019-05-12T01:00:40.975Z,936.8
2019-05-12T01:01:39.210Z,936.9
2019-05-12T01:02:43.071Z,936.9
2019-05-12T01:03:43.506Z,936.9
2019-05-12T01:04:43.524Z,937
2019-05-12T01:05:44.156Z,936.9
2019-05-12T01:06:44.278Z,936.9
2019-05-12T01:07:45.670Z,937
2019-05-12T01:08:48.342Z,937
2019-05-12T01:09:49.077Z,936.9
2019-05-12T01:10:48.554Z,937
2019-05-12T01:11:49.314Z,937.2
2019-05-12T01:12:50.715Z,937.2
2019-05-12T01:13:53.896Z,937.2
2019-05-12T01:14:53.296Z,937.2
2019-05-12T01:15:54.694Z,937.3
2019-05-12T01:16:57.774Z,937.3
2019-05-12T01:17:58.469Z,937.3
2019-05-12T01:18:58.572Z,937.3
2019-05-12T01:19:59.067Z,937.3
2019-05-12T01:21:07.594Z,937.3
2019-05-12T01:22:03.893Z,937.3
2019-05-12T01:23:03.551Z,937.3
2019-05-12T01:24:09.165Z,937.3
2019-05-12T01:25:03.525Z,937.3
2019-05-12T01:26:04.922Z,937.3
2019-05-12T01:27:06.050Z,937.4
2019-05-12T01:28:08.073Z,937.4
2019-05-12T01:29:13.562Z,937.4
2019-05-12T01:30:09.665Z,937.5
2019-05-12T01:31:11.072Z,937.4
2019-05-12T01:32:13.328Z,937.3
2019-05-12T01:33:12.425Z,937.5
2019-05-12T01:34:13.818Z,937.5
2019-05-12T01:35:15.232Z,937.5
2019-05-12T01:36:18.106Z,937.6
2019-05-12T01:37:21.702Z,937.5
2019-05-12T01:38:19.016Z,937.5
2019-05-12T01:39:20.419Z,937.5
2019-05-12T01:40:24.408Z,937.6
2019-05-12T01:41:23.379Z,937.5
2019-05-12T01:42:23.656Z,937.5
2019-05-12T01:43:27.730Z,937.6
2019-05-12T01:44:28.600Z,937.5
2019-05-12T01:45:28.686Z,937.5
2019-05-12T01:46:28.758Z,937.4
2019-05-12T01:47:29.277Z,937.5
2019-05-12T01:48:30.368Z,937.7
2019-05-12T01:49:31.496Z,937.7
2019-05-12T01:50:34.006Z,937.7
2019-05-12T01:51:34.378Z,937.7
2019-05-12T01:52:35.152Z,937.5
2019-05-12T01:53:37.794Z,937.6
2019-05-12T01:54:38.026Z,937.6
2019-05-12T01:55:39.021Z,937.7
2019-05-12T01:56:39.476Z,937.7
2019-05-12T01:57:43.611Z,937.3
2019-05-12T01:58:41.712Z,937.7
2019-05-12T01:59:42.837Z,937.7
2019-05-12T02:00:44.737Z,937.6
2019-05-12T02:01:45.118Z,937.7
2019-05-12T02:02:48.018Z,937.7
2019-05-12T02:03:48.030Z,937.8
2019-05-12T02:04:48.502Z,937.7
2019-05-12T02:05:49.916Z,937.8
2019-05-12T02:06:53.764Z,937.7
2019-05-12T02:07:53.426Z,937.8
2019-05-12T02:08:52.538Z,937.8
2019-05-12T02:09:53.669Z,937.8
2019-05-12T02:10:55.072Z,937.9
2019-05-12T02:11:58.206Z,937.8
2019-05-12T02:12:59.269Z,937.6
2019-05-12T02:13:58.047Z,937.9
2019-05-12T02:14:59.417Z,937.9
2019-05-12T02:16:03.182Z,937.9
2019-05-12T02:17:03.544Z,938
2019-05-12T02:18:02.649Z,938
2019-05-12T02:19:03.778Z,938.1
2019-05-12T02:20:04.913Z,938.2
2019-05-12T02:21:08.280Z,938.2
2019-05-12T02:22:08.393Z,938.2
2019-05-12T02:23:08.832Z,938
2019-05-12T02:24:23.215Z,938.2
2019-05-12T02:25:10.387Z,938.2
2019-05-12T02:26:11.513Z,938.2
2019-05-12T02:27:12.647Z,938.2
2019-05-12T02:28:13.778Z,938.2
2019-05-12T02:29:14.902Z,938.2
2019-05-12T02:30:19.199Z,938.3
2019-05-12T02:31:20.196Z,938.4
2019-05-12T02:32:17.983Z,938.3
2019-05-12T02:33:24.229Z,938.3
2019-05-12T02:34:22.226Z,938.3
2019-05-12T02:35:24.371Z,938.4
2019-05-12T02:36:21.046Z,938.3
2019-05-12T02:37:22.440Z,938.4
2019-05-12T02:38:25.076Z,938.4
2019-05-12T02:39:24.941Z,938.5
2019-05-12T02:40:25.537Z,938.4
2019-05-12T02:41:26.328Z,938.4
2019-05-12T02:42:29.805Z,938.5
2019-05-12T02:43:27.301Z,938.5
2019-05-12T02:44:30.246Z,938.5
2019-05-12T02:45:31.175Z,938.5
2019-05-12T02:46:30.313Z,938.5
2019-05-12T02:47:34.382Z,938.6
2019-05-12T02:48:35.291Z,938.3
2019-05-12T02:49:40.089Z,938.5
2019-05-12T02:50:35.474Z,938.4
2019-05-12T02:51:35.407Z,938.5
2019-05-12T02:52:35.960Z,938.5
2019-05-12T02:53:40.357Z,938.6
2019-05-12T02:55:06.318Z,938.6
2019-05-12T02:55:40.835Z,938.6
2019-05-12T02:56:44.625Z,938.6
2019-05-12T02:57:39.968Z,938.7
2019-05-12T02:58:41.358Z,938.7
2019-05-12T02:59:44.863Z,938.6
2019-05-12T03:00:45.437Z,938.7
2019-05-12T03:01:45.306Z,938.7
2019-05-12T03:02:45.715Z,938.7
2019-05-12T03:03:46.209Z,938.7
2019-05-12T03:04:47.331Z,938.7
2019-05-12T03:05:48.459Z,938.2
2019-05-12T03:06:50.141Z,938.8
2019-05-12T03:07:50.529Z,938.8
2019-05-12T03:08:54.319Z,938.8
2019-05-12T03:09:54.952Z,938.8
2019-05-12T03:10:54.936Z,938.9
2019-05-12T03:11:55.699Z,938.9
2019-05-12T03:12:55.799Z,938.9
2019-05-12T03:14:00.219Z,939
2019-05-12T03:14:59.856Z,938.9
2019-05-12T03:16:00.383Z,938.8
2019-05-12T03:16:59.783Z,939
2019-05-12T03:18:01.198Z,939
2019-05-12T03:19:04.848Z,938.8
2019-05-12T03:20:04.887Z,939
2019-05-12T03:21:05.515Z,938.9
2019-05-12T03:22:05.305Z,939
2019-05-12T03:23:06.411Z,939.1
2019-05-12T03:24:06.881Z,938.9
2019-05-12T03:25:30.224Z,939.1
2019-05-12T03:26:10.736Z,939.1
2019-05-12T03:27:09.805Z,939
2019-05-12T03:28:15.851Z,939.2
2019-05-12T03:29:14.397Z,939.2
2019-05-12T03:30:17.214Z,939.3
2019-05-12T03:31:18.197Z,939
2019-05-12T03:32:18.271Z,939.2
2019-05-12T03:33:27.906Z,939.1
2019-05-12T03:36:17.714Z,939.3
2019-05-12T03:37:17.564Z,939.4
2019-05-12T03:38:14.737Z,939.3
2019-05-12T03:39:15.042Z,939.4
2019-05-12T03:40:18.236Z,939.4
2019-05-12T03:41:20.259Z,939.4
2019-05-12T03:42:19.946Z,939.4
2019-05-12T03:43:18.063Z,939.5
2019-05-12T03:44:20.688Z,939.5
2019-05-12T03:45:20.490Z,939.5
2019-05-12T03:46:20.616Z,939.4
2019-05-12T03:47:24.739Z,939.5
2019-05-12T03:48:24.965Z,939.4
2019-05-12T03:49:24.392Z,939.5
2019-05-12T03:50:24.750Z,939.5
2019-05-12T03:51:26.083Z,939.6
2019-05-12T03:52:27.221Z,939.6
2019-05-12T03:53:30.368Z,939.7
2019-05-12T03:54:29.481Z,939.6
2019-05-12T03:55:47.120Z,937.7
2019-05-12T03:56:34.439Z,939.7
2019-05-12T03:57:34.468Z,939.7
2019-05-12T03:58:34.514Z,939.7
2019-05-12T03:59:34.747Z,939.7
2019-05-12T04:00:36.271Z,939.7
2019-05-12T04:01:36.973Z,939.6
2019-05-12T04:02:39.505Z,939.8
2019-05-12T04:03:40.102Z,939.7
2019-05-12T04:04:40.257Z,939.8
2019-05-12T04:05:44.967Z,939.8
2019-05-12T04:06:41.475Z,939.9
2019-05-12T04:07:44.648Z,939.7
2019-05-12T04:08:45.488Z,940
2019-05-12T04:09:45.069Z,940
2019-05-12T04:10:45.599Z,939.6
2019-05-12T04:11:49.591Z,940
2019-05-12T04:12:50.414Z,940
2019-05-12T04:13:50.676Z,940
2019-05-12T04:14:54.716Z,940
2019-05-12T04:15:51.399Z,940.1
2019-05-12T04:16:51.519Z,940.1
2019-05-12T04:17:54.269Z,940.1
2019-05-12T04:18:55.123Z,940.1
2019-05-12T04:19:55.001Z,940
2019-05-12T04:20:55.435Z,940
2019-05-12T04:22:00.067Z,940.2
2019-05-12T04:23:00.127Z,940.1
2019-05-12T04:23:57.902Z,940.2
2019-05-12T04:25:00.599Z,940.2
2019-05-12T04:26:18.532Z,940.2
2019-05-12T04:27:00.756Z,940.1
2019-05-12T04:28:00.919Z,940.2
2019-05-12T04:29:05.033Z,940.3
2019-05-12T04:30:05.397Z,939.8
2019-05-12T04:31:05.536Z,940.3
2019-05-12T04:32:06.027Z,940.4
2019-05-12T04:33:07.149Z,940.3
2019-05-12T04:34:14.482Z,940.4
2019-05-12T04:35:09.737Z,940.4
2019-05-12T04:36:10.864Z,940.5
2019-05-12T04:37:14.469Z,940.4
2019-05-12T04:38:14.762Z,940.4
2019-05-12T04:39:14.787Z,940.5
2019-05-12T04:40:15.304Z,940.5
2019-05-12T04:41:19.741Z,940.5
2019-05-12T04:42:20.313Z,940.6
2019-05-12T04:43:20.191Z,940.3
2019-05-12T04:44:20.943Z,940.6
2019-05-12T04:45:20.053Z,940.6
2019-05-12T04:46:21.178Z,940.7
2019-05-12T04:47:24.960Z,940.7
2019-05-12T04:48:25.668Z,940.7
2019-05-12T04:49:25.136Z,940.7
2019-05-12T04:50:25.591Z,940.8
2019-05-12T04:51:26.990Z,940.8
2019-05-12T04:52:35.118Z,940.8
2019-05-12T04:53:29.327Z,940.8
2019-05-12T04:54:30.459Z,940.8
2019-05-12T04:55:31.587Z,940.8
2019-05-12T04:56:35.729Z,940.8
2019-05-12T04:57:34.729Z,940.9
2019-05-12T04:58:35.128Z,940.8
2019-05-12T04:59:35.668Z,940.9
2019-05-12T05:00:41.078Z,940.9
2019-05-12T05:01:40.579Z,941
2019-05-12T05:02:44.917Z,940.8
2019-05-12T05:03:40.706Z,940.8
2019-05-12T05:04:44.065Z,941
2019-05-12T05:05:44.325Z,941
2019-05-12T05:06:45.175Z,940.8
2019-05-12T05:07:45.576Z,941
2019-05-12T05:08:49.704Z,941
2019-05-12T05:09:49.668Z,941
2019-05-12T05:10:49.775Z,941
2019-05-12T05:11:50.782Z,941.1
2019-05-12T05:12:50.492Z,941.2
2019-05-12T05:13:50.877Z,941.2
2019-05-12T05:14:54.726Z,941.2
2019-05-12T05:15:54.847Z,941.1
2019-05-12T05:16:54.389Z,941.2
2019-05-12T05:17:55.762Z,941.1
2019-05-12T05:18:56.546Z,941.2
2019-05-12T05:19:58.774Z,941.3
2019-05-12T05:20:59.578Z,941.3
2019-05-12T05:21:59.961Z,941.3
2019-05-12T05:23:02.907Z,941.3
2019-05-12T05:24:03.751Z,941.4
2019-05-12T05:25:04.307Z,941.4
2019-05-12T05:26:19.815Z,941.3
2019-05-12T05:27:06.156Z,941.2
2019-05-12T05:28:09.598Z,941.4
2019-05-12T05:29:07.897Z,941.4
2019-05-12T05:30:09.052Z,941.5
2019-05-12T05:31:10.446Z,941.5
2019-05-12T05:32:13.984Z,941.5
2019-05-12T05:33:14.438Z,941.5
2019-05-12T05:34:14.808Z,941.5
2019-05-12T05:35:18.182Z,941.4
2019-05-12T05:36:19.727Z,941.5
2019-05-12T05:37:19.880Z,941.6
2019-05-12T05:38:20.659Z,941.6
2019-05-12T05:39:19.398Z,941.6
2019-05-12T05:40:24.907Z,941.7
2019-05-12T05:41:20.670Z,941.6
2019-05-12T05:42:21.987Z,941.6
2019-05-12T05:43:29.405Z,941.6
2019-05-12T05:44:24.058Z,941.5
2019-05-12T05:45:31.798Z,941.7
2019-05-12T05:46:25.129Z,941.5
2019-05-12T05:47:28.529Z,941.5
2019-05-12T05:48:32.134Z,941.7
2019-05-12T05:49:28.940Z,941.6
2019-05-12T05:50:30.093Z,941.5
2019-05-12T05:51:33.425Z,941.8
2019-05-12T05:52:43.943Z,941.8
2019-05-12T05:53:33.933Z,941.8
2019-05-12T05:54:43.962Z,941.8
2019-05-12T05:55:36.308Z,941.8
2019-05-12T05:57:06.068Z,941.7
2019-05-12T05:57:37.994Z,941.7
2019-05-12T05:58:40.103Z,941.8
2019-05-12T05:59:42.642Z,941.9
2019-05-12T06:00:44.924Z,941.9
2019-05-12T06:01:54.969Z,941.9
2019-05-12T06:02:44.300Z,941.8
2019-05-12T06:03:45.726Z,941.9
2019-05-12T06:04:56.378Z,941.8
2019-05-12T06:05:48.730Z,942.1
2019-05-12T06:07:00.990Z,941.8
2019-05-12T06:07:50.009Z,942.1
2019-05-12T06:08:51.156Z,942
2019-05-12T06:09:53.636Z,942.1
2019-05-12T06:10:53.876Z,942.1
2019-05-12T06:11:54.305Z,942.1
2019-05-12T06:12:56.293Z,942.1
2019-05-12T06:13:55.666Z,942.1
2019-05-12T06:15:08.317Z,942.1
2019-05-12T06:15:59.096Z,942.1
2019-05-12T06:16:59.476Z,942.1
2019-05-12T06:18:03.538Z,942.2
2019-05-12T06:19:03.426Z,942.2
2019-05-12T06:20:04.336Z,942.1
2019-05-12T06:21:03.848Z,942.1
2019-05-12T06:22:08.861Z,942.2
2019-05-12T06:23:06.559Z,942.3
2019-05-12T06:24:15.113Z,942.3
2019-05-12T06:25:08.871Z,942.3
2019-05-12T06:26:10.026Z,942.3
2019-05-12T06:27:26.201Z,942.3
2019-05-12T06:28:14.668Z,942.3
2019-05-12T06:29:24.405Z,942.3
2019-05-12T06:32:16.136Z,942.3
2019-05-12T06:33:09.322Z,942.4
2019-05-12T06:34:14.996Z,942.4
2019-05-12T06:35:11.792Z,942.4
2019-05-12T06:36:29.556Z,942.3
2019-05-12T06:37:16.836Z,942.4
2019-05-12T06:38:14.163Z,942.5
2019-05-12T06:39:25.824Z,942.4
2019-05-12T06:40:16.118Z,942.5
2019-05-12T06:41:20.424Z,942.5
2019-05-12T06:42:24.175Z,942.6
2019-05-12T06:43:19.424Z,942.5
2019-05-12T06:44:25.050Z,942.6
2019-05-12T06:45:23.466Z,942.6
2019-05-12T06:46:23.553Z,942.6
2019-05-12T06:47:24.118Z,942.7
2019-05-12T06:48:35.553Z,942.6
2019-05-12T06:49:26.853Z,942.6
2019-05-12T06:50:38.611Z,942.6
2019-05-12T06:51:33.637Z,942.5
2019-05-12T06:52:30.138Z,942.6
2019-05-12T06:53:31.097Z,942.7
2019-05-12T06:54:33.521Z,942.7
2019-05-12T06:55:39.653Z,942.6
2019-05-12T06:56:34.270Z,942.7
2019-05-12T06:57:34.499Z,942.7
2019-05-12T06:58:39.756Z,940.7
2019-05-12T06:59:36.881Z,942.8
2019-05-12T07:00:37.978Z,942.8
2019-05-12T07:01:39.102Z,942.7
2019-05-12T07:02:48.650Z,942.8
2019-05-12T07:05:38.490Z,942.8
2019-05-12T07:06:39.228Z,942.7
2019-05-12T07:07:49.529Z,942.8
2019-05-12T07:08:38.663Z,942.8
2019-05-12T07:10:07.820Z,942.9
2019-05-12T07:11:01.602Z,943
2019-05-12T07:12:07.342Z,942.9
2019-05-12T07:12:55.854Z,943
2019-05-12T07:13:44.525Z,942.9
2019-05-12T07:14:48.849Z,942.8
2019-05-12T07:15:49.319Z,943
2019-05-12T07:16:53.211Z,942.8
2019-05-12T07:17:49.710Z,943
2019-05-12T07:18:50.417Z,943
2019-05-12T07:19:54.558Z,943
2019-05-12T07:20:53.716Z,943
2019-05-12T07:22:04.925Z,943.1
2019-05-12T07:22:55.378Z,943
2019-05-12T07:24:00.330Z,943
2019-05-12T07:24:57.709Z,943.1
2019-05-12T07:26:04.697Z,943
2019-05-12T07:27:14.635Z,943.1
2019-05-12T07:28:14.375Z,943.1
2019-05-12T07:29:04.146Z,943.1
2019-05-12T07:30:04.646Z,943.1
2019-05-12T07:31:04.121Z,943.2
2019-05-12T07:32:06.768Z,943.1
2019-05-12T07:33:06.103Z,943.2
2019-05-12T07:34:13.593Z,943.2
2019-05-12T07:35:09.325Z,943.3
2019-05-12T07:36:08.438Z,943.2
2019-05-12T07:37:08.965Z,943.2
2019-05-12T07:38:12.006Z,943
2019-05-12T07:39:13.880Z,943.2
2019-05-12T07:40:13.713Z,943.3
2019-05-12T07:41:14.379Z,943.2
2019-05-12T07:42:13.532Z,943.2
2019-05-12T07:43:16.061Z,943.3
2019-05-12T07:44:15.691Z,943.2
2019-05-12T07:45:22.118Z,943.2
2019-05-12T07:46:18.802Z,943.3
2019-05-12T07:47:24.159Z,943.3
2019-05-12T07:48:19.289Z,943.3
2019-05-12T07:49:21.903Z,943.2
2019-05-12T07:50:34.181Z,943.3
2019-05-12T07:51:21.361Z,943.3
2019-05-12T07:52:24.214Z,943.3
2019-05-12T07:53:23.671Z,943.2
2019-05-12T07:54:29.278Z,943.3
2019-05-12T07:55:25.891Z,943.3
2019-05-12T07:56:40.754Z,943.4
2019-05-12T07:59:26.531Z,943.4
2019-05-12T08:00:25.678Z,943.5
2019-05-12T08:01:25.167Z,943.4
2019-05-12T08:02:37.099Z,943.3
2019-05-12T08:03:29.710Z,943.3
2019-05-12T08:04:31.521Z,943.4
2019-05-12T08:05:28.940Z,943.4
2019-05-12T08:06:32.432Z,943.4
2019-05-12T08:07:33.663Z,943.5
2019-05-12T08:08:33.947Z,943.5
2019-05-12T08:09:36.287Z,943.5
2019-05-12T08:10:34.925Z,943.5
2019-05-12T08:11:38.543Z,943.5
2019-05-12T08:12:39.361Z,943.5
2019-05-12T08:13:46.186Z,943.6
2019-05-12T08:14:38.252Z,943.6
2019-05-12T08:15:39.899Z,943.6
2019-05-12T08:16:43.674Z,943.5
2019-05-12T08:17:41.153Z,943.4
2019-05-12T08:18:46.461Z,943.6
2019-05-12T08:19:44.331Z,943.6
2019-05-12T08:20:43.916Z,943.7
2019-05-12T08:21:48.918Z,943.5
2019-05-12T08:22:49.137Z,943.6
2019-05-12T08:23:49.878Z,943.6
2019-05-12T08:24:53.814Z,943.6
2019-05-12T08:25:48.961Z,943.6
2019-05-12T08:26:58.717Z,943.7
2019-05-12T08:28:14.669Z,943.7
2019-05-12T08:28:53.361Z,943.7
2019-05-12T08:30:08.163Z,943.8
2019-05-12T08:32:54.429Z,943.8
2019-05-12T08:33:49.921Z,943.8
2019-05-12T08:34:53.929Z,943.8
2019-05-12T08:35:52.115Z,943.8
2019-05-12T08:36:56.691Z,943.9
2019-05-12T08:37:54.398Z,943.9
2019-05-12T08:38:54.822Z,943.7
2019-05-12T08:40:12.219Z,943.9
2019-05-12T08:40:59.801Z,943.9
2019-05-12T08:41:57.904Z,943.8
2019-05-12T08:42:59.320Z,943.9
2019-05-12T08:44:04.548Z,943.8
2019-05-12T08:45:04.081Z,944
2019-05-12T08:46:06.823Z,944
2019-05-12T08:47:04.112Z,943.8
2019-05-12T08:48:04.524Z,944
2019-05-12T08:49:10.683Z,944
2019-05-12T08:50:06.780Z,943.8
2019-05-12T08:51:13.812Z,944
2019-05-12T08:52:09.433Z,944.1
2019-05-12T08:53:12.136Z,944
2019-05-12T08:56:26.076Z,944.2
2019-05-12T08:59:00.787Z,944.2
2019-05-12T09:00:13.727Z,944.2
2019-05-12T09:01:04.342Z,944.2
2019-05-12T09:02:06.705Z,944.3
2019-05-12T09:03:04.552Z,944.3
2019-05-12T09:04:19.837Z,944.3
2019-05-12T09:05:06.828Z,944.3
2019-05-12T09:06:09.131Z,944.4
2019-05-12T09:07:08.571Z,944.4
2019-05-12T09:08:09.966Z,944.3
2019-05-12T09:09:11.095Z,944.3
2019-05-12T09:10:14.148Z,944.2
2019-05-12T09:11:13.883Z,944.4
2019-05-12T09:12:13.963Z,944.5
2019-05-12T09:13:14.552Z,944.4
2019-05-12T09:14:15.652Z,944.5
2019-05-12T09:15:16.780Z,944.5
2019-05-12T09:16:17.935Z,944.5
2019-05-12T09:17:19.340Z,944.5
2019-05-12T09:18:33.448Z,944.3
2019-05-12T09:19:33.170Z,944.5
2019-05-12T09:20:21.429Z,944.5
2019-05-12T09:21:30.949Z,944.6
2019-05-12T09:22:24.097Z,944.5
2019-05-12T09:23:24.530Z,944.5
2019-05-12T09:24:27.344Z,944.6
2019-05-12T09:25:29.191Z,944.7
2019-05-12T09:26:34.479Z,944.5
2019-05-12T09:27:29.482Z,944.6
2019-05-12T09:28:42.823Z,944.7
2019-05-12T09:29:30.717Z,944.7
2019-05-12T09:30:33.344Z,944.6
2019-05-12T09:31:35.093Z,944.7
2019-05-12T09:32:33.838Z,944.7
2019-05-12T09:33:39.977Z,944.7
2019-05-12T09:34:34.750Z,944.7
2019-05-12T09:35:39.176Z,944.7
2019-05-12T09:36:35.731Z,944.8
2019-05-12T09:37:45.781Z,944.8
2019-05-12T09:38:40.963Z,944.8
2019-05-12T09:39:53.811Z,944.9
2019-05-12T09:40:39.637Z,944.8
2019-05-12T09:41:55.795Z,944.8
2019-05-12T09:42:43.927Z,944.9
2019-05-12T09:43:53.931Z,944.9
2019-05-12T09:44:49.149Z,945
2019-05-12T09:46:03.660Z,944.8
2019-05-12T09:46:46.397Z,943
2019-05-12T09:47:49.024Z,943.7
2019-05-12T09:48:59.600Z,944.9
2019-05-12T09:49:49.810Z,945
2019-05-12T09:50:51.426Z,945
2019-05-12T09:51:51.474Z,944.9
2019-05-12T09:53:05.889Z,944.6
2019-05-12T09:54:00.490Z,945
2019-05-12T09:54:53.814Z,945
2019-05-12T09:55:58.031Z,944.8
2019-05-12T09:57:05.023Z,945
2019-05-12T09:57:56.325Z,945
2019-05-12T09:59:01.713Z,945
2019-05-12T10:00:04.866Z,945
2019-05-12T10:00:58.695Z,945
2019-05-12T10:02:00.113Z,945
2019-05-12T10:03:08.533Z,945
2019-05-12T10:04:03.442Z,945.1
2019-05-12T10:05:08.588Z,945
2019-05-12T10:06:03.841Z,945.1
2019-05-12T10:07:05.010Z,945.1
2019-05-12T10:08:06.412Z,945.1
2019-05-12T10:09:19.406Z,945
2019-05-12T10:10:09.147Z,945.1
2019-05-12T10:11:10.160Z,945.1
2019-05-12T10:12:10.574Z,945.1
2019-05-12T10:13:13.782Z,945.1
2019-05-12T10:14:16.378Z,945.1
2019-05-12T10:15:18.532Z,945
2019-05-12T10:16:15.814Z,945.2
2019-05-12T10:17:20.196Z,945.2
2019-05-12T10:18:19.778Z,945.2
2019-05-12T10:19:18.892Z,945.2
2019-05-12T10:20:21.586Z,945.2
2019-05-12T10:21:20.466Z,945
2019-05-12T10:22:23.485Z,945
2019-05-12T10:23:25.031Z,945.1
2019-05-12T10:24:24.215Z,945.2
2019-05-12T10:25:35.751Z,945.2
2019-05-12T10:26:27.699Z,945.3
2019-05-12T10:27:39.706Z,945.2
2019-05-12T10:28:29.300Z,945.2
2019-05-12T10:29:30.953Z,945.2
2019-05-12T10:30:30.476Z,945.3
2019-05-12T10:31:35.398Z,945.1
2019-05-12T10:32:34.156Z,945.2
2019-05-12T10:33:33.854Z,945.3
2019-05-12T10:34:44.338Z,945.3
2019-05-12T10:35:35.246Z,945.2
2019-05-12T10:36:39.010Z,945.3
2019-05-12T10:37:36.580Z,945.3
2019-05-12T10:38:39.746Z,945.3
2019-05-12T10:39:39.131Z,945.4
2019-05-12T10:40:40.270Z,945.2
2019-05-12T10:41:43.657Z,945.3
2019-05-12T10:42:53.514Z,945.4
2019-05-12T10:43:48.318Z,945.3
2019-05-12T10:44:46.311Z,945.2
2019-05-12T10:45:45.426Z,945.4
2019-05-12T10:46:46.554Z,943.5
2019-05-12T10:47:47.956Z,945.2
2019-05-12T10:48:49.103Z,945.3
2019-05-12T10:49:50.499Z,945.3
2019-05-12T10:50:53.539Z,945.3
2019-05-12T10:51:53.934Z,945.5
2019-05-12T10:52:53.610Z,945.4
2019-05-12T10:53:57.324Z,945.4
2019-05-12T10:54:55.479Z,945.5
2019-05-12T10:55:56.614Z,945.4
2019-05-12T10:57:00.115Z,945.5
2019-05-12T10:58:14.330Z,943.1
2019-05-12T10:59:00.761Z,945.3
2019-05-12T11:00:04.101Z,945.5
2019-05-12T11:01:13.834Z,945.5
2019-05-12T11:02:04.222Z,945.5
2019-05-12T11:03:12.069Z,945.5
2019-05-12T11:04:09.223Z,945.5
2019-05-12T11:05:12.191Z,945.6
2019-05-12T11:06:13.150Z,945.6
2019-05-12T11:07:09.233Z,945.5
2019-05-12T11:08:16.662Z,945.6
2019-05-12T11:09:13.918Z,945.6
2019-05-12T11:10:25.280Z,945.7
2019-05-12T11:11:14.575Z,945.6
2019-05-12T11:12:18.967Z,945.6
2019-05-12T11:13:18.098Z,945.7
2019-05-12T11:14:20.169Z,945.7
2019-05-12T11:15:19.056Z,945.7
2019-05-12T11:16:30.704Z,945.7
2019-05-12T11:17:20.281Z,945.7
2019-05-12T11:18:25.865Z,945.7
2019-05-12T11:19:22.927Z,945.7
2019-05-12T11:20:25.034Z,945.7
2019-05-12T11:21:25.568Z,945.7
2019-05-12T11:22:26.340Z,945.8
2019-05-12T11:23:29.951Z,945.8
2019-05-12T11:24:28.395Z,945.7
2019-05-12T11:25:30.238Z,945.8
2019-05-12T11:26:30.609Z,945.8
2019-05-12T11:27:31.744Z,945.7
2019-05-12T11:28:33.721Z,945.8
2019-05-12T11:29:54.579Z,945.7
2019-05-12T11:30:34.887Z,945.8
2019-05-12T11:31:38.644Z,945.6
2019-05-12T11:32:44.132Z,945.6
2019-05-12T11:33:39.513Z,945.8
2019-05-12T11:34:39.940Z,945.8
2019-05-12T11:35:43.311Z,945.7
2019-05-12T11:36:43.732Z,945.8
2019-05-12T11:37:44.217Z,945.7
2019-05-12T11:38:45.610Z,945.8
2019-05-12T11:39:53.486Z,945.8
2019-05-12T11:40:49.187Z,945.8
2019-05-12T11:41:48.307Z,945.8
2019-05-12T11:43:04.879Z,946
2019-05-12T11:43:49.859Z,945.8
2019-05-12T11:44:51.015Z,945.9
2019-05-12T11:45:53.428Z,945.9
2019-05-12T11:46:54.597Z,945.9
2019-05-12T11:47:56.770Z,945.8
2019-05-12T11:48:59.001Z,946
2019-05-12T11:50:04.816Z,945.9
2019-05-12T11:50:58.194Z,946
2019-05-12T11:52:00.944Z,946
2019-05-12T11:52:59.884Z,945.8
2019-05-12T11:54:03.389Z,946
2019-05-12T11:55:02.045Z,945.8
2019-05-12T11:56:13.833Z,946
2019-05-12T11:57:04.227Z,945.9
2019-05-12T11:58:16.788Z,946
2019-05-12T11:59:06.076Z,946
2019-05-12T12:00:10.720Z,946
2019-05-12T12:01:08.329Z,945.8
2019-05-12T12:02:08.512Z,946
2019-05-12T12:03:23.360Z,945.9
2019-05-12T12:04:10.682Z,946
2019-05-12T12:05:13.753Z,946
2019-05-12T12:06:13.424Z,946
2019-05-12T12:07:13.860Z,946
2019-05-12T12:08:15.258Z,945.3
2019-05-12T12:09:24.219Z,946
2019-05-12T12:10:19.655Z,945.9
2019-05-12T12:11:30.746Z,946
2019-05-12T12:12:19.770Z,945.8
2019-05-12T12:13:25.412Z,945.9
2019-05-12T12:14:23.647Z,946.1
2019-05-12T12:15:26.199Z,945.9
2019-05-12T12:16:23.691Z,946.1
2019-05-12T12:17:30.889Z,946.1
2019-05-12T12:18:24.418Z,946.1
2019-05-12T12:19:48.470Z,946.2
2019-05-12T12:20:29.657Z,946
2019-05-12T12:21:31.706Z,946
2019-05-12T12:22:29.756Z,945.1
2019-05-12T12:23:29.010Z,946.1
2019-05-12T12:24:38.323Z,944.2
2019-05-12T12:25:34.019Z,946.2
2019-05-12T12:26:39.380Z,946.2
2019-05-12T12:27:33.713Z,944.3
2019-05-12T12:28:34.852Z,946.2
2019-05-12T12:29:35.975Z,946.2
2019-05-12T12:30:37.125Z,946.1
2019-05-12T12:31:44.179Z,946
2019-05-12T12:32:39.527Z,946.3
2019-05-12T12:33:47.201Z,946.2
2019-05-12T12:34:41.297Z,946.3
2019-05-12T12:35:44.297Z,946.3
2019-05-12T12:36:43.815Z,946.2
2019-05-12T12:37:45.021Z,946.2
2019-05-12T12:38:46.379Z,946.1
2019-05-12T12:39:48.840Z,946.2
2019-05-12T12:40:48.988Z,946.2
2019-05-12T12:42:05.670Z,946.3
2019-05-12T12:42:53.789Z,946.2
2019-05-12T12:43:53.517Z,946.4
2019-05-12T12:44:53.438Z,946.4
2019-05-12T12:45:53.041Z,946.3
2019-05-12T12:47:05.579Z,944.5
2019-05-12T12:47:55.611Z,946.4
2019-05-12T12:49:05.395Z,946.4
2019-05-12T12:49:57.868Z,946.3
2019-05-12T12:50:59.026Z,946.3
2019-05-12T12:52:00.422Z,946.4
2019-05-12T12:53:01.547Z,946.3
2019-05-12T12:54:03.257Z,946.3
2019-05-12T12:55:13.982Z,946.4
2019-05-12T12:56:04.575Z,946.3
2019-05-12T12:57:06.159Z,946.3
2019-05-12T12:58:05.483Z,946.3
2019-05-12T12:59:10.075Z,946.3
2019-05-12T13:00:07.640Z,946.4
2019-05-12T13:01:13.932Z,946.4
2019-05-12T13:02:14.636Z,946.4
2019-05-12T13:03:10.987Z,946.4
2019-05-12T13:04:13.213Z,946.4
2019-05-12T13:05:13.549Z,946.4
2019-05-12T13:06:16.901Z,946.4
2019-05-12T13:07:14.662Z,946.3
2019-05-12T13:08:15.786Z,946.4
2019-05-12T13:09:29.913Z,946.4
2019-05-12T13:10:19.739Z,946.3
2019-05-12T13:11:30.062Z,946.2
2019-05-12T13:12:25.094Z,946.3
2019-05-12T13:13:21.175Z,946.3
2019-05-12T13:14:23.252Z,946.3
2019-05-12T13:15:23.590Z,946.4
2019-05-12T13:16:23.830Z,946.4
2019-05-12T13:17:26.986Z,946.4
2019-05-12T13:18:32.337Z,946.5
2019-05-12T13:19:25.925Z,946.4
2019-05-12T13:20:27.060Z,946.4
2019-05-12T13:21:28.214Z,946.4
2019-05-12T13:22:29.971Z,946.4
2019-05-12T13:23:46.522Z,946.4
2019-05-12T13:24:30.874Z,946.4
2019-05-12T13:25:33.622Z,946.4